sensor_id;sensor_type;location;lat;lon;timestamp;pressure;altitude;pressure_sealevel;temperature;humidity
34658;BME280;20865;43.312;27.152;2023-03-04T00:01:02;100561.38;;;14.86;48.62
34658;BME280;20865;43.312;27.152;2023-03-04T00:03:29;100572.58;;;14.55;49.18
34658;BME280;20865;43.312;27.152;2023-03-04T00:05:57;100563.48;;;14.57;49.25
34658;BME280;20865;43.312;27.152;2023-03-04T00:08:25;100562.84;;;14.40;49.82
34658;BME280;20865;43.312;27.152;2023-03-04T00:10:53;100561.87;;;14.31;49.95
34658;BME280;20865;43.312;27.152;2023-03-04T00:13:20;100573.22;;;14.27;50.06
34658;BME280;20865;43.312;27.152;2023-03-04T00:15:50;100574.89;;;14.08;50.50
34658;BME280;20865;43.312;27.152;2023-03-04T00:18:18;100572.54;;;14.33;49.98
34658;BME280;20865;43.312;27.152;2023-03-04T00:20:47;100577.20;;;14.39;49.72
34658;BME280;20865;43.312;27.152;2023-03-04T00:23:16;100581.19;;;14.41;49.67
34658;BME280;20865;43.312;27.152;2023-03-04T00:25:44;100578.34;;;14.56;49.25
34658;BME280;20865;43.312;27.152;2023-03-04T00:28:12;100579.22;;;14.56;49.08
34658;BME280;20865;43.312;27.152;2023-03-04T00:30:42;100575.31;;;14.53;49.22
34658;BME280;20865;43.312;27.152;2023-03-04T00:33:10;100584.12;;;14.35;49.65
34658;BME280;20865;43.312;27.152;2023-03-04T00:35:37;100580.05;;;14.24;50.02
34658;BME280;20865;43.312;27.152;2023-03-04T00:38:08;100575.95;;;14.26;50.02
34658;BME280;20865;43.312;27.152;2023-03-04T00:40:35;100569.78;;;14.24;50.16
34658;BME280;20865;43.312;27.152;2023-03-04T00:43:03;100571.12;;;14.24;50.16
34658;BME280;20865;43.312;27.152;2023-03-04T00:45:31;100569.82;;;14.22;50.17
34658;BME280;20865;43.312;27.152;2023-03-04T00:47:59;100571.94;;;14.36;49.80
34658;BME280;20865;43.312;27.152;2023-03-04T00:50:26;100572.10;;;14.55;49.30
34658;BME280;20865;43.312;27.152;2023-03-04T00:52:54;100572.64;;;14.63;49.06
34658;BME280;20865;43.312;27.152;2023-03-04T00:55:22;100574.38;;;14.64;49.03
34658;BME280;20865;43.312;27.152;2023-03-04T00:57:49;100581.31;;;14.60;49.09
34658;BME280;20865;43.312;27.152;2023-03-04T01:00:19;100574.03;;;14.40;49.65
34658;BME280;20865;43.312;27.152;2023-03-04T01:02:46;100573.56;;;14.30;49.79
34658;BME280;20865;43.312;27.152;2023-03-04T01:05:14;100582.82;;;14.23;49.92
34658;BME280;20865;43.312;27.152;2023-03-04T01:07:42;100580.30;;;14.18;49.95
34658;BME280;20865;43.312;27.152;2023-03-04T01:10:12;100572.23;;;14.18;50.08
34658;BME280;20865;43.312;27.152;2023-03-04T01:12:40;100564.12;;;14.20;50.02
34658;BME280;20865;43.312;27.152;2023-03-04T01:15:10;100556.98;;;14.19;50.26
34658;BME280;20865;43.312;27.152;2023-03-04T01:17:38;100552.19;;;14.27;50.17
34658;BME280;20865;43.312;27.152;2023-03-04T01:20:06;100557.69;;;14.24;50.19
34658;BME280;20865;43.312;27.152;2023-03-04T01:22:35;100559.03;;;14.24;50.32
34658;BME280;20865;43.312;27.152;2023-03-04T01:25:03;100558.79;;;14.30;50.17
34658;BME280;20865;43.312;27.152;2023-03-04T01:27:31;100554.41;;;14.27;50.20
34658;BME280;20865;43.312;27.152;2023-03-04T01:29:59;100550.52;;;14.35;50.06
34658;BME280;20865;43.312;27.152;2023-03-04T01:32:26;100559.03;;;14.24;50.32
34658;BME280;20865;43.312;27.152;2023-03-04T01:34:54;100553.30;;;14.21;50.46
34658;BME280;20865;43.312;27.152;2023-03-04T01:37:22;100553.30;;;14.21;50.45
34658;BME280;20865;43.312;27.152;2023-03-04T01:39:49;100549.16;;;14.24;50.34
34658;BME280;20865;43.312;27.152;2023-03-04T01:42:19;100543.38;;;14.23;50.22
34658;BME280;20865;43.312;27.152;2023-03-04T01:44:48;100542.81;;;14.37;49.87
34658;BME280;20865;43.312;27.152;2023-03-04T01:47:18;100534.27;;;14.38;49.92
34658;BME280;20865;43.312;27.152;2023-03-04T01:49:49;100544.95;;;14.39;49.85
34658;BME280;20865;43.312;27.152;2023-03-04T01:52:17;100538.22;;;14.39;49.89
34658;BME280;20865;43.312;27.152;2023-03-04T01:54:44;100541.39;;;14.39;49.90
34658;BME280;20865;43.312;27.152;2023-03-04T01:57:24;100549.05;;;14.38;49.82
34658;BME280;20865;43.312;27.152;2023-03-04T02:00:32;100549.08;;;14.48;49.61
34658;BME280;20865;43.312;27.152;2023-03-04T02:02:21;100553.20;;;14.35;49.89
34658;BME280;20865;43.312;27.152;2023-03-04T02:04:49;100548.66;;;14.37;49.80
34658;BME280;20865;43.312;27.152;2023-03-04T02:07:17;100536.14;;;14.36;49.87
34658;BME280;20865;43.312;27.152;2023-03-04T02:09:44;100533.28;;;14.18;50.33
34658;BME280;20865;43.312;27.152;2023-03-04T02:12:12;100532.83;;;14.29;50.06
34658;BME280;20865;43.312;27.152;2023-03-04T02:14:40;100537.20;;;14.32;49.90
34658;BME280;20865;43.312;27.152;2023-03-04T02:17:11;100536.52;;;14.16;50.23
34658;BME280;20865;43.312;27.152;2023-03-04T02:20:12;100531.38;;;14.10;50.39
34658;BME280;20865;43.312;27.152;2023-03-04T02:22:42;100526.02;;;14.10;50.33
34658;BME280;20865;43.312;27.152;2023-03-04T02:25:12;100526.96;;;14.09;50.28
34658;BME280;20865;43.312;27.152;2023-03-04T02:27:40;100524.27;;;14.09;50.28
34658;BME280;20865;43.312;27.152;2023-03-04T02:30:10;100523.84;;;14.08;50.28
34658;BME280;20865;43.312;27.152;2023-03-04T02:32:38;100518.55;;;14.06;50.31
34658;BME280;20865;43.312;27.152;2023-03-04T02:35:08;100518.55;;;14.06;50.22
34658;BME280;20865;43.312;27.152;2023-03-04T02:37:35;100521.16;;;14.08;50.17
34658;BME280;20865;43.312;27.152;2023-03-04T02:40:03;100523.52;;;14.05;50.22
34658;BME280;20865;43.312;27.152;2023-03-04T02:42:32;100521.70;;;14.06;50.24
34658;BME280;20865;43.312;27.152;2023-03-04T02:45:00;100527.88;;;14.08;50.11
34658;BME280;20865;43.312;27.152;2023-03-04T02:47:28;100517.68;;;14.06;50.16
34658;BME280;20865;43.312;27.152;2023-03-04T02:49:56;100518.59;;;14.05;50.25
34658;BME280;20865;43.312;27.152;2023-03-04T02:52:26;100521.63;;;14.08;50.16
34658;BME280;20865;43.312;27.152;2023-03-04T02:54:54;100522.38;;;14.11;50.13
34658;BME280;20865;43.312;27.152;2023-03-04T02:57:22;100527.36;;;14.10;50.04
34658;BME280;20865;43.312;27.152;2023-03-04T02:59:50;100524.00;;;14.15;50.01
34658;BME280;20865;43.312;27.152;2023-03-04T03:02:17;100527.98;;;14.17;50.01
34658;BME280;20865;43.312;27.152;2023-03-04T03:04:45;100530.67;;;14.17;50.02
34658;BME280;20865;43.312;27.152;2023-03-04T03:07:13;100524.00;;;14.15;50.03
34658;BME280;20865;43.312;27.152;2023-03-04T03:09:40;100528.81;;;14.07;49.91
34658;BME280;20865;43.312;27.152;2023-03-04T03:12:08;100522.58;;;14.06;50.01
34658;BME280;20865;43.312;27.152;2023-03-04T03:14:35;100522.50;;;14.08;49.93
34658;BME280;20865;43.312;27.152;2023-03-04T03:17:03;100521.51;;;14.11;49.91
34658;BME280;20865;43.312;27.152;2023-03-04T03:19:31;100522.33;;;14.13;49.83
34658;BME280;20865;43.312;27.152;2023-03-04T03:21:58;100525.94;;;14.12;49.85
34658;BME280;20865;43.312;27.152;2023-03-04T03:24:26;100524.27;;;14.09;49.86
34658;BME280;20865;43.312;27.152;2023-03-04T03:26:54;100521.11;;;14.10;49.86
34658;BME280;20865;43.312;27.152;2023-03-04T03:29:21;100524.15;;;14.12;49.71
34658;BME280;20865;43.312;27.152;2023-03-04T03:31:49;100522.50;;;14.08;49.86
34658;BME280;20865;43.312;27.152;2023-03-04T03:34:16;100521.38;;;14.14;49.64
34658;BME280;20865;43.312;27.152;2023-03-04T03:36:44;100519.67;;;14.23;49.51
34658;BME280;20865;43.312;27.152;2023-03-04T03:39:12;100520.71;;;14.19;49.52
34658;BME280;20865;43.312;27.152;2023-03-04T03:41:41;100523.70;;;14.23;49.46
34658;BME280;20865;43.312;27.152;2023-03-04T03:44:08;100523.15;;;14.25;49.40
34658;BME280;20865;43.312;27.152;2023-03-04T03:46:36;100521.81;;;14.25;49.32
34658;BME280;20865;43.312;27.152;2023-03-04T03:49:04;100517.38;;;14.24;49.26
34658;BME280;20865;43.312;27.152;2023-03-04T03:51:31;100521.06;;;14.21;49.38
34658;BME280;20865;43.312;27.152;2023-03-04T03:53:59;100518.33;;;14.23;49.50
34658;BME280;20865;43.312;27.152;2023-03-04T03:56:27;100524.89;;;14.26;49.39
34658;BME280;20865;43.312;27.152;2023-03-04T03:58:54;100520.69;;;14.30;49.20
34658;BME280;20865;43.312;27.152;2023-03-04T04:01:22;100519.86;;;14.28;49.25
34658;BME280;20865;43.312;27.152;2023-03-04T04:03:49;100522.51;;;14.30;49.26
34658;BME280;20865;43.312;27.152;2023-03-04T04:06:17;100522.98;;;14.29;49.21
34658;BME280;20865;43.312;27.152;2023-03-04T04:08:45;100527.45;;;14.29;49.15
34658;BME280;20865;43.312;27.152;2023-03-04T04:11:12;100527.41;;;14.30;49.18
34658;BME280;20865;43.312;27.152;2023-03-04T04:13:40;100527.53;;;14.27;49.11
34658;BME280;20865;43.312;27.152;2023-03-04T04:16:09;100532.44;;;14.28;48.82
34658;BME280;20865;43.312;27.152;2023-03-04T04:18:37;100531.93;;;14.18;49.07
34658;BME280;20865;43.312;27.152;2023-03-04T04:21:05;100541.02;;;14.16;49.10
34658;BME280;20865;43.312;27.152;2023-03-04T04:23:33;100541.77;;;14.19;49.02
34658;BME280;20865;43.312;27.152;2023-03-04T04:26:00;100543.50;;;14.20;48.96
34658;BME280;20865;43.312;27.152;2023-03-04T04:28:28;100532.76;;;14.20;49.06
34658;BME280;20865;43.312;27.152;2023-03-04T04:30:56;100533.73;;;14.29;48.91
34658;BME280;20865;43.312;27.152;2023-03-04T04:33:23;100543.53;;;14.30;48.88
34658;BME280;20865;43.312;27.152;2023-03-04T04:35:51;100549.78;;;14.31;48.96
34658;BME280;20865;43.312;27.152;2023-03-04T04:38:19;100544.80;;;14.32;48.93
34658;BME280;20865;43.312;27.152;2023-03-04T04:40:48;100551.52;;;14.32;48.94
34658;BME280;20865;43.312;27.152;2023-03-04T04:43:15;100543.06;;;14.31;49.20
34658;BME280;20865;43.312;27.152;2023-03-04T04:45:43;100546.11;;;14.22;49.33
34658;BME280;20865;43.312;27.152;2023-03-04T04:48:10;100550.64;;;14.32;49.22
34658;BME280;20865;43.312;27.152;2023-03-04T04:50:38;100551.20;;;14.29;49.29
34658;BME280;20865;43.312;27.152;2023-03-04T04:53:06;100560.73;;;14.26;49.52
34658;BME280;20865;43.312;27.152;2023-03-04T04:55:33;100557.48;;;14.28;49.45
34658;BME280;20865;43.312;27.152;2023-03-04T04:58:01;100574.91;;;14.30;49.49
34658;BME280;20865;43.312;27.152;2023-03-04T05:00:29;100577.64;;;14.28;49.45
34658;BME280;20865;43.312;27.152;2023-03-04T05:02:56;100571.75;;;14.30;49.42
34658;BME280;20865;43.312;27.152;2023-03-04T05:05:24;100568.36;;;14.25;49.63
34658;BME280;20865;43.312;27.152;2023-03-04T05:07:51;100575.67;;;14.22;49.78
34658;BME280;20865;43.312;27.152;2023-03-04T05:10:19;100574.52;;;14.51;49.10
34658;BME280;20865;43.312;27.152;2023-03-04T05:12:47;100581.03;;;14.56;48.87
34658;BME280;20865;43.312;27.152;2023-03-04T05:15:15;100577.48;;;14.55;48.83
34658;BME280;20865;43.312;27.152;2023-03-04T05:17:43;100574.95;;;14.28;49.37
34658;BME280;20865;43.312;27.152;2023-03-04T05:20:12;100569.70;;;14.25;49.56
34658;BME280;20865;43.312;27.152;2023-03-04T05:22:39;100576.37;;;14.27;49.55
34658;BME280;20865;43.312;27.152;2023-03-04T05:25:07;100585.35;;;14.26;49.60
34658;BME280;20865;43.312;27.152;2023-03-04T05:27:35;100581.88;;;14.24;49.70
34658;BME280;20865;43.312;27.152;2023-03-04T05:30:03;100583.22;;;14.24;49.69
34658;BME280;20865;43.312;27.152;2023-03-04T05:32:31;100594.31;;;14.26;49.65
34658;BME280;20865;43.312;27.152;2023-03-04T05:34:59;100598.67;;;14.29;49.30
34658;BME280;20865;43.312;27.152;2023-03-04T05:37:26;100595.06;;;14.30;49.29
34658;BME280;20865;43.312;27.152;2023-03-04T05:39:54;100602.06;;;14.34;49.32
34658;BME280;20865;43.312;27.152;2023-03-04T05:42:22;100601.23;;;14.32;49.38
34658;BME280;20865;43.312;27.152;2023-03-04T05:44:49;100596.33;;;14.32;49.40
34658;BME280;20865;43.312;27.152;2023-03-04T05:47:17;100591.35;;;14.33;49.35
34658;BME280;20865;43.312;27.152;2023-03-04T05:49:45;100594.98;;;14.32;49.38
34658;BME280;20865;43.312;27.152;2023-03-04T05:52:12;100597.67;;;14.32;49.33
34658;BME280;20865;43.312;27.152;2023-03-04T05:54:40;100600.76;;;14.33;49.29
34658;BME280;20865;43.312;27.152;2023-03-04T05:57:07;100599.84;;;14.34;49.26
34658;BME280;20865;43.312;27.152;2023-03-04T05:59:35;100602.85;;;14.36;49.14
34658;BME280;20865;43.312;27.152;2023-03-04T06:02:03;100603.00;;;14.33;49.38
34658;BME280;20865;43.312;27.152;2023-03-04T06:04:30;100599.30;;;14.36;49.27
34658;BME280;20865;43.312;27.152;2023-03-04T06:06:58;100603.67;;;14.38;49.37
34658;BME280;20865;43.312;27.152;2023-03-04T06:09:26;100601.94;;;14.37;49.58
34658;BME280;20865;43.312;27.152;2023-03-04T06:11:53;100604.62;;;14.37;49.69
34658;BME280;20865;43.312;27.152;2023-03-04T06:14:21;100617.04;;;14.40;49.57
34658;BME280;20865;43.312;27.152;2023-03-04T06:16:49;100617.94;;;14.40;49.65
34658;BME280;20865;43.312;27.152;2023-03-04T06:19:16;100612.02;;;14.42;49.59
34658;BME280;20865;43.312;27.152;2023-03-04T06:21:44;100617.34;;;14.44;49.74
34658;BME280;20865;43.312;27.152;2023-03-04T06:24:11;100619.56;;;14.44;49.80
34658;BME280;20865;43.312;27.152;2023-03-04T06:26:39;100617.74;;;14.45;49.77
34658;BME280;20865;43.312;27.152;2023-03-04T06:29:07;100615.84;;;14.47;49.82
34658;BME280;20865;43.312;27.152;2023-03-04T06:31:34;100614.45;;;14.48;49.72
34658;BME280;20865;43.312;27.152;2023-03-04T06:34:02;100616.19;;;14.51;49.66
34658;BME280;20865;43.312;27.152;2023-03-04T06:36:30;100614.30;;;14.53;49.75
34658;BME280;20865;43.312;27.152;2023-03-04T06:38:57;100617.45;;;14.52;49.82
34658;BME280;20865;43.312;27.152;2023-03-04T06:41:25;100615.98;;;14.56;49.59
34658;BME280;20865;43.312;27.152;2023-03-04T06:43:53;100615.47;;;14.58;49.59
34658;BME280;20865;43.312;27.152;2023-03-04T06:46:21;100612.23;;;14.60;49.54
34658;BME280;20865;43.312;27.152;2023-03-04T06:48:49;100612.10;;;14.63;49.33
34658;BME280;20865;43.312;27.152;2023-03-04T06:51:17;100612.63;;;14.61;49.26
34658;BME280;20865;43.312;27.152;2023-03-04T06:53:45;100608.42;;;14.65;49.33
34658;BME280;20865;43.312;27.152;2023-03-04T06:56:13;100600.27;;;14.67;49.40
34658;BME280;20865;43.312;27.152;2023-03-04T06:58:43;100600.55;;;14.71;49.44
34658;BME280;20865;43.312;27.152;2023-03-04T07:01:17;100593.70;;;14.74;49.56
34658;BME280;20865;43.312;27.152;2023-03-04T07:03:45;100593.56;;;14.77;49.67
34658;BME280;20865;43.312;27.152;2023-03-04T07:06:15;100592.70;;;14.87;49.35
34658;BME280;20865;43.312;27.152;2023-03-04T07:08:44;100580.08;;;14.89;49.53
34658;BME280;20865;43.312;27.152;2023-03-04T07:11:11;100584.56;;;14.88;49.54
34658;BME280;20865;43.312;27.152;2023-03-04T07:13:39;100580.39;;;14.81;49.80
34658;BME280;20865;43.312;27.152;2023-03-04T07:16:11;100575.09;;;14.80;49.88
34658;BME280;20865;43.312;27.152;2023-03-04T07:18:39;100576.78;;;14.82;49.56
34658;BME280;20865;43.312;27.152;2023-03-04T07:21:07;100575.36;;;14.84;49.70
34658;BME280;20865;43.312;27.152;2023-03-04T07:23:36;100578.44;;;14.85;49.73
34658;BME280;20865;43.312;27.152;2023-03-04T07:26:04;100574.28;;;14.88;49.49
34658;BME280;20865;43.312;27.152;2023-03-04T07:28:32;100570.84;;;14.94;49.05
34658;BME280;20865;43.312;27.152;2023-03-04T07:31:18;100574.23;;;14.89;48.88
34658;BME280;20865;43.312;27.152;2023-03-04T07:33:39;100570.24;;;14.88;49.18
34658;BME280;20865;43.312;27.152;2023-03-04T07:36:07;100571.06;;;14.90;49.24
34658;BME280;20865;43.312;27.152;2023-03-04T07:38:35;100574.02;;;14.94;49.42
34658;BME280;20865;43.312;27.152;2023-03-04T07:41:03;100564.81;;;14.99;49.39
34658;BME280;20865;43.312;27.152;2023-03-04T07:43:30;100560.17;;;15.03;49.28
34658;BME280;20865;43.312;27.152;2023-03-04T07:45:59;100562.30;;;15.05;49.43
34658;BME280;20865;43.312;27.152;2023-03-04T07:48:27;100569.29;;;15.09;49.46
34658;BME280;20865;43.312;27.152;2023-03-04T07:53:38;100565.67;;;15.20;49.66
34658;BME280;20865;43.312;27.152;2023-03-04T07:56:07;100566.05;;;15.61;48.87
34658;BME280;20865;43.312;27.152;2023-03-04T07:58:36;100550.14;;;15.75;48.25
34658;BME280;20865;43.312;27.152;2023-03-04T08:01:17;100562.70;;;15.85;48.23
34658;BME280;20865;43.312;27.152;2023-03-04T08:03:40;100557.81;;;15.93;48.12
34658;BME280;20865;43.312;27.152;2023-03-04T08:06:10;100554.16;;;16.04;47.81
34658;BME280;20865;43.312;27.152;2023-03-04T08:08:38;100557.97;;;16.17;47.76
34658;BME280;20865;43.312;27.152;2023-03-04T08:11:08;100557.38;;;16.38;47.08
34658;BME280;20865;43.312;27.152;2023-03-04T08:13:36;100556.06;;;16.47;46.79
34658;BME280;20865;43.312;27.152;2023-03-04T08:16:05;100551.16;;;16.64;46.95
34658;BME280;20865;43.312;27.152;2023-03-04T08:18:33;100556.47;;;16.65;46.13
34658;BME280;20865;43.312;27.152;2023-03-04T08:21:00;100562.92;;;16.80;45.95
34658;BME280;20865;43.312;27.152;2023-03-04T08:23:28;100555.86;;;16.86;45.90
34658;BME280;20865;43.312;27.152;2023-03-04T08:25:57;100550.25;;;16.91;46.27
34658;BME280;20865;43.312;27.152;2023-03-04T08:28:25;100548.33;;;17.02;45.96
34658;BME280;20865;43.312;27.152;2023-03-04T08:30:53;100551.88;;;17.11;45.20
34658;BME280;20865;43.312;27.152;2023-03-04T08:33:22;100552.65;;;17.22;45.15
34658;BME280;20865;43.312;27.152;2023-03-04T08:35:49;100553.77;;;17.26;45.84
34658;BME280;20865;43.312;27.152;2023-03-04T08:38:17;100549.85;;;17.32;45.79
34658;BME280;20865;43.312;27.152;2023-03-04T08:40:50;100546.29;;;17.56;45.78
34658;BME280;20865;43.312;27.152;2023-03-04T08:43:14;100541.56;;;17.77;45.74
34658;BME280;20865;43.312;27.152;2023-03-04T08:45:43;100552.29;;;17.94;44.78
34658;BME280;20865;43.312;27.152;2023-03-04T08:48:11;100547.97;;;18.15;44.78
34658;BME280;20865;43.312;27.152;2023-03-04T08:50:39;100545.06;;;18.11;45.02
34658;BME280;20865;43.312;27.152;2023-03-04T08:53:07;100546.76;;;18.20;44.49
34658;BME280;20865;43.312;27.152;2023-03-04T08:55:37;100549.64;;;18.63;44.04
34658;BME280;20865;43.312;27.152;2023-03-04T08:58:05;100541.05;;;18.71;42.95
34658;BME280;20865;43.312;27.152;2023-03-04T09:00:35;100531.66;;;18.92;42.34
34658;BME280;20865;43.312;27.152;2023-03-04T09:03:03;100536.33;;;18.97;42.74
34658;BME280;20865;43.312;27.152;2023-03-04T09:05:32;100531.69;;;19.14;41.69
34658;BME280;20865;43.312;27.152;2023-03-04T09:07:59;100524.47;;;19.14;42.76
34658;BME280;20865;43.312;27.152;2023-03-04T09:10:27;100525.14;;;19.18;42.60
34658;BME280;20865;43.312;27.152;2023-03-04T09:12:54;100524.36;;;19.23;41.73
34658;BME280;20865;43.312;27.152;2023-03-04T09:15:22;100520.30;;;19.37;42.15
34658;BME280;20865;43.312;27.152;2023-03-04T09:17:50;100519.54;;;19.49;43.21
34658;BME280;20865;43.312;27.152;2023-03-04T09:20:19;100512.45;;;19.54;42.32
34658;BME280;20865;43.312;27.152;2023-03-04T09:22:48;100506.56;;;19.69;40.97
34658;BME280;20865;43.312;27.152;2023-03-04T09:25:16;100506.94;;;19.70;41.72
34658;BME280;20865;43.312;27.152;2023-03-04T09:27:43;100509.31;;;19.96;41.67
34658;BME280;20865;43.312;27.152;2023-03-04T09:30:12;100498.17;;;20.28;41.86
34658;BME280;20865;43.312;27.152;2023-03-04T09:32:40;100498.38;;;20.52;40.35
34658;BME280;20865;43.312;27.152;2023-03-04T09:35:08;100498.84;;;20.58;39.74
34658;BME280;20865;43.312;27.152;2023-03-04T09:37:36;100496.36;;;20.68;40.76
34658;BME280;20865;43.312;27.152;2023-03-04T09:40:05;100490.23;;;20.84;41.31
34658;BME280;20865;43.312;27.152;2023-03-04T09:42:43;100487.60;;;21.03;39.58
34658;BME280;20865;43.312;27.152;2023-03-04T09:45:10;100482.62;;;21.02;39.92
34658;BME280;20865;43.312;27.152;2023-03-04T09:47:40;100479.20;;;21.06;39.77
34658;BME280;20865;43.312;27.152;2023-03-04T09:50:10;100475.05;;;21.20;38.89
34658;BME280;20865;43.312;27.152;2023-03-04T09:55:23;100462.30;;;21.33;37.67
34658;BME280;20865;43.312;27.152;2023-03-04T10:03:21;100449.72;;;21.45;38.43
34658;BME280;20865;43.312;27.152;2023-03-04T10:06:06;100450.09;;;21.46;37.75
34658;BME280;20865;43.312;27.152;2023-03-04T10:16:28;100434.92;;;21.49;37.57
34658;BME280;20865;43.312;27.152;2023-03-04T10:18:57;100437.86;;;21.46;37.54
34658;BME280;20865;43.312;27.152;2023-03-04T10:21:36;100430.60;;;21.21;37.52
34658;BME280;20865;43.312;27.152;2023-03-04T10:24:12;100428.16;;;21.11;38.04
34658;BME280;20865;43.312;27.152;2023-03-04T10:26:44;100427.09;;;21.13;37.27
34658;BME280;20865;43.312;27.152;2023-03-04T10:29:17;100424.80;;;20.94;37.97
34658;BME280;20865;43.312;27.152;2023-03-04T10:31:47;100426.98;;;20.77;38.84
34658;BME280;20865;43.312;27.152;2023-03-04T10:34:16;100419.69;;;20.52;39.32
34658;BME280;20865;43.312;27.152;2023-03-04T10:36:59;100416.30;;;20.28;40.29
34658;BME280;20865;43.312;27.152;2023-03-04T10:39:29;100410.26;;;20.17;39.73
34658;BME280;20865;43.312;27.152;2023-03-04T10:44:52;100405.91;;;20.55;39.58
34658;BME280;20865;43.312;27.152;2023-03-04T10:47:28;100404.27;;;20.52;38.72
34658;BME280;20865;43.312;27.152;2023-03-04T10:49:57;100390.77;;;20.05;39.23
34658;BME280;20865;43.312;27.152;2023-03-04T10:52:30;100390.41;;;19.70;40.22
34658;BME280;20865;43.312;27.152;2023-03-04T10:55:04;100394.09;;;19.69;40.47
34658;BME280;20865;43.312;27.152;2023-03-04T10:57:34;100382.97;;;19.66;40.92
34658;BME280;20865;43.312;27.152;2023-03-04T11:00:24;100374.20;;;19.83;40.49
34658;BME280;20865;43.312;27.152;2023-03-04T11:02:49;100371.32;;;19.79;40.45
34658;BME280;20865;43.312;27.152;2023-03-04T11:05:21;100364.41;;;19.67;40.91
34658;BME280;20865;43.312;27.152;2023-03-04T11:07:51;100363.19;;;19.79;40.19
34658;BME280;20865;43.312;27.152;2023-03-04T11:10:25;100368.05;;;19.93;40.22
34658;BME280;20865;43.312;27.152;2023-03-04T11:15:29;100356.47;;;19.91;39.63
34658;BME280;20865;43.312;27.152;2023-03-04T11:18:03;100354.57;;;19.79;39.50
34658;BME280;20865;43.312;27.152;2023-03-04T11:20:38;100347.72;;;19.93;39.54
34658;BME280;20865;43.312;27.152;2023-03-04T11:23:13;100347.52;;;19.96;39.67
34658;BME280;20865;43.312;27.152;2023-03-04T11:25:43;100347.64;;;20.08;40.04
34658;BME280;20865;43.312;27.152;2023-03-04T11:28:21;100336.42;;;20.07;40.09
34658;BME280;20865;43.312;27.152;2023-03-04T11:30:56;100330.88;;;20.08;39.68
34658;BME280;20865;43.312;27.152;2023-03-04T11:33:33;100326.73;;;20.10;40.32
34658;BME280;20865;43.312;27.152;2023-03-04T11:38:50;100320.61;;;19.93;39.90
34658;BME280;20865;43.312;27.152;2023-03-04T11:41:22;100310.67;;;19.87;39.62
34658;BME280;20865;43.312;27.152;2023-03-04T11:43:49;100304.77;;;19.87;39.59
34658;BME280;20865;43.312;27.152;2023-03-04T11:49:04;100307.87;;;19.88;40.09
34658;BME280;20865;43.312;27.152;2023-03-04T11:51:46;100303.56;;;19.98;39.96
34658;BME280;20865;43.312;27.152;2023-03-04T11:57:02;100299.00;;;19.99;40.22
34658;BME280;20865;43.312;27.152;2023-03-04T12:02:19;100290.66;;;20.28;39.10
34658;BME280;20865;43.312;27.152;2023-03-04T12:05:02;100291.59;;;20.34;39.14
34658;BME280;20865;43.312;27.152;2023-03-04T12:07:38;100287.25;;;20.31;38.49
34658;BME280;20865;43.312;27.152;2023-03-04T12:15:54;100283.03;;;20.53;38.29
34658;BME280;20865;43.312;27.152;2023-03-04T12:24:28;100284.87;;;20.27;38.36
34658;BME280;20865;43.312;27.152;2023-03-04T12:27:05;100289.38;;;20.33;38.84
34658;BME280;20865;43.312;27.152;2023-03-04T12:29:40;100289.81;;;20.40;39.02
34658;BME280;20865;43.312;27.152;2023-03-04T12:34:59;100282.88;;;20.61;38.76
34658;BME280;20865;43.312;27.152;2023-03-04T12:48:59;100265.07;;;21.07;37.06
34658;BME280;20865;43.312;27.152;2023-03-04T12:51:51;100263.72;;;21.12;37.76
34658;BME280;20865;43.312;27.152;2023-03-04T12:57:26;100255.25;;;21.17;36.92
34658;BME280;20865;43.312;27.152;2023-03-04T13:00:20;100248.15;;;21.09;37.03
34658;BME280;20865;43.312;27.152;2023-03-04T13:09:23;100230.13;;;20.71;37.48
34658;BME280;20865;43.312;27.152;2023-03-04T13:17:54;100216.23;;;20.76;37.45
34658;BME280;20865;43.312;27.152;2023-03-04T13:23:03;100218.91;;;20.52;37.99
34658;BME280;20865;43.312;27.152;2023-03-04T13:28:13;100208.47;;;20.58;38.11
34658;BME280;20865;43.312;27.152;2023-03-04T13:36:01;100190.44;;;20.26;38.65
34658;BME280;20865;43.312;27.152;2023-03-04T13:38:32;100192.16;;;20.14;39.37
34658;BME280;20865;43.312;27.152;2023-03-04T13:43:58;100190.98;;;20.62;38.13
34658;BME280;20865;43.312;27.152;2023-03-04T13:46:28;100193.20;;;20.63;38.12
34658;BME280;20865;43.312;27.152;2023-03-04T13:56:43;100173.39;;;20.68;38.44
34658;BME280;20865;43.312;27.152;2023-03-04T13:59:28;100165.66;;;20.75;38.70
34658;BME280;20865;43.312;27.152;2023-03-04T14:01:57;100164.45;;;20.84;38.47
34658;BME280;20865;43.312;27.152;2023-03-04T14:04:32;100163.57;;;20.60;38.71
34658;BME280;20865;43.312;27.152;2023-03-04T14:07:19;100151.76;;;20.61;38.30
34658;BME280;20865;43.312;27.152;2023-03-04T14:10:02;100153.81;;;20.76;37.59
34658;BME280;20865;43.312;27.152;2023-03-04T14:12:27;100150.83;;;20.73;37.55
34658;BME280;20865;43.312;27.152;2023-03-04T14:14:57;100151.56;;;20.51;37.53
34658;BME280;20865;43.312;27.152;2023-03-04T14:17:34;100150.17;;;20.33;37.80
34658;BME280;20865;43.312;27.152;2023-03-04T14:20:20;100150.27;;;20.31;38.56
34658;BME280;20865;43.312;27.152;2023-03-04T14:22:37;100134.86;;;20.32;38.44
34658;BME280;20865;43.312;27.152;2023-03-04T14:27:42;100133.23;;;20.29;38.37
34658;BME280;20865;43.312;27.152;2023-03-04T14:30:24;100123.98;;;20.26;38.57
34658;BME280;20865;43.312;27.152;2023-03-04T14:32:53;100124.35;;;20.45;38.13